sensor_id;sensor_type;location;lat;lon;timestamp;P1;durP1;ratioP1;P2;durP2;ratioP2
11439;SDS011;5776;51.814;4.510;2023-10-13T00:00:26;9.30;;;5.35;;
11439;SDS011;5776;51.814;4.510;2023-10-13T00:02:58;8.52;;;4.80;;
11439;SDS011;5776;51.814;4.510;2023-10-13T00:05:28;7.50;;;4.45;;
11439;SDS011;5776;51.814;4.510;2023-10-13T00:08:00;5.50;;;4.00;;
11439;SDS011;5776;51.814;4.510;2023-10-13T00:10:30;7.85;;;4.40;;
11439;SDS011;5776;51.814;4.510;2023-10-13T00:12:57;9.60;;;4.53;;
11439;SDS011;5776;51.814;4.510;2023-10-13T00:18:26;7.55;;;4.22;;
11439;SDS011;5776;51.814;4.510;2023-10-13T00:20:59;6.63;;;4.00;;
11439;SDS011;5776;51.814;4.510;2023-10-13T00:23:25;10.00;;;4.30;;
11439;SDS011;5776;51.814;4.510;2023-10-13T00:25:53;8.27;;;3.90;;
11439;SDS011;5776;51.814;4.510;2023-10-13T00:28:26;8.52;;;3.85;;
11439;SDS011;5776;51.814;4.510;2023-10-13T00:31:01;10.05;;;4.20;;
11439;SDS011;5776;51.814;4.510;2023-10-13T00:33:47;8.52;;;4.07;;
11439;SDS011;5776;51.814;4.510;2023-10-13T00:36:16;6.30;;;3.60;;
11439;SDS011;5776;51.814;4.510;2023-10-13T00:38:45;6.97;;;3.25;;
11439;SDS011;5776;51.814;4.510;2023-10-13T00:41:13;5.82;;;2.72;;
11439;SDS011;5776;51.814;4.510;2023-10-13T00:44:00;6.72;;;3.00;;
11439;SDS011;5776;51.814;4.510;2023-10-13T00:46:36;8.18;;;3.45;;
11439;SDS011;5776;51.814;4.510;2023-10-13T00:49:04;8.60;;;3.25;;
11439;SDS011;5776;51.814;4.510;2023-10-13T00:51:34;12.20;;;3.22;;
11439;SDS011;5776;51.814;4.510;2023-10-13T00:54:04;5.93;;;2.97;;
11439;SDS011;5776;51.814;4.510;2023-10-13T00:56:40;4.93;;;2.65;;
11439;SDS011;5776;51.814;4.510;2023-10-13T00:59:15;8.48;;;2.90;;
11439;SDS011;5776;51.814;4.510;2023-10-13T01:01:41;8.27;;;2.80;;
11439;SDS011;5776;51.814;4.510;2023-10-13T01:04:27;7.82;;;2.80;;
11439;SDS011;5776;51.814;4.510;2023-10-13T01:06:57;8.77;;;3.15;;
11439;SDS011;5776;51.814;4.510;2023-10-13T01:09:22;6.50;;;3.20;;
11439;SDS011;5776;51.814;4.510;2023-10-13T01:12:08;8.52;;;3.55;;
11439;SDS011;5776;51.814;4.510;2023-10-13T01:14:34;6.07;;;3.40;;
11439;SDS011;5776;51.814;4.510;2023-10-13T01:17:01;6.20;;;2.85;;
11439;SDS011;5776;51.814;4.510;2023-10-13T01:19:29;5.78;;;3.38;;
11439;SDS011;5776;51.814;4.510;2023-10-13T01:21:55;7.57;;;2.67;;
11439;SDS011;5776;51.814;4.510;2023-10-13T01:24:29;10.57;;;3.17;;
11439;SDS011;5776;51.814;4.510;2023-10-13T01:27:00;6.65;;;3.20;;
11439;SDS011;5776;51.814;4.510;2023-10-13T01:29:50;5.47;;;2.88;;
11439;SDS011;5776;51.814;4.510;2023-10-13T01:32:24;5.20;;;2.95;;
11439;SDS011;5776;51.814;4.510;2023-10-13T01:34:50;10.50;;;2.83;;
11439;SDS011;5776;51.814;4.510;2023-10-13T01:37:21;6.78;;;2.78;;
11439;SDS011;5776;51.814;4.510;2023-10-13T01:39:47;10.88;;;3.60;;
11439;SDS011;5776;51.814;4.510;2023-10-13T01:42:14;9.10;;;3.17;;
11439;SDS011;5776;51.814;4.510;2023-10-13T01:44:45;6.78;;;3.00;;
11439;SDS011;5776;51.814;4.510;2023-10-13T01:47:11;3.63;;;2.67;;
11439;SDS011;5776;51.814;4.510;2023-10-13T01:49:38;6.78;;;3.20;;
11439;SDS011;5776;51.814;4.510;2023-10-13T01:52:15;5.15;;;2.85;;
11439;SDS011;5776;51.814;4.510;2023-10-13T01:54:41;7.47;;;2.85;;
11439;SDS011;5776;51.814;4.510;2023-10-13T01:57:10;6.10;;;2.50;;
11439;SDS011;5776;51.814;4.510;2023-10-13T01:59:43;7.25;;;3.08;;
11439;SDS011;5776;51.814;4.510;2023-10-13T02:02:10;5.80;;;2.60;;
11439;SDS011;5776;51.814;4.510;2023-10-13T02:04:41;8.05;;;3.00;;
11439;SDS011;5776;51.814;4.510;2023-10-13T02:07:26;8.38;;;2.67;;
11439;SDS011;5776;51.814;4.510;2023-10-13T02:09:56;7.40;;;2.70;;
11439;SDS011;5776;51.814;4.510;2023-10-13T02:12:21;7.15;;;3.13;;
11439;SDS011;5776;51.814;4.510;2023-10-13T02:15:11;7.63;;;2.80;;
11439;SDS011;5776;51.814;4.510;2023-10-13T02:17:47;7.07;;;3.17;;
11439;SDS011;5776;51.814;4.510;2023-10-13T02:20:17;7.30;;;2.90;;
11439;SDS011;5776;51.814;4.510;2023-10-13T02:22:44;5.07;;;2.63;;
11439;SDS011;5776;51.814;4.510;2023-10-13T02:25:18;4.65;;;2.95;;
11439;SDS011;5776;51.814;4.510;2023-10-13T02:28:05;7.78;;;3.17;;
11439;SDS011;5776;51.814;4.510;2023-10-13T02:30:41;4.60;;;2.85;;
11439;SDS011;5776;51.814;4.510;2023-10-13T02:33:13;6.63;;;2.72;;
11439;SDS011;5776;51.814;4.510;2023-10-13T02:35:40;5.82;;;2.80;;
11439;SDS011;5776;51.814;4.510;2023-10-13T02:38:24;7.53;;;2.97;;
11439;SDS011;5776;51.814;4.510;2023-10-13T02:41:15;7.57;;;2.78;;
11439;SDS011;5776;51.814;4.510;2023-10-13T02:43:52;5.78;;;2.90;;
11439;SDS011;5776;51.814;4.510;2023-10-13T02:46:19;6.40;;;2.53;;
11439;SDS011;5776;51.814;4.510;2023-10-13T02:48:47;7.28;;;2.92;;
11439;SDS011;5776;51.814;4.510;2023-10-13T02:51:19;6.50;;;2.47;;
11439;SDS011;5776;51.814;4.510;2023-10-13T02:53:51;7.40;;;3.00;;
11439;SDS011;5776;51.814;4.510;2023-10-13T02:56:18;9.20;;;2.55;;
11439;SDS011;5776;51.814;4.510;2023-10-13T02:58:48;6.00;;;2.63;;
11439;SDS011;5776;51.814;4.510;2023-10-13T03:01:34;6.47;;;3.22;;
11439;SDS011;5776;51.814;4.510;2023-10-13T03:04:02;7.78;;;3.25;;
11439;SDS011;5776;51.814;4.510;2023-10-13T03:06:30;4.93;;;3.28;;
11439;SDS011;5776;51.814;4.510;2023-10-13T03:09:02;7.03;;;3.22;;
11439;SDS011;5776;51.814;4.510;2023-10-13T03:11:43;5.68;;;2.70;;
11439;SDS011;5776;51.814;4.510;2023-10-13T03:14:23;3.50;;;2.22;;
11439;SDS011;5776;51.814;4.510;2023-10-13T03:16:51;7.53;;;2.97;;
11439;SDS011;5776;51.814;4.510;2023-10-13T03:19:18;9.10;;;3.50;;
11439;SDS011;5776;51.814;4.510;2023-10-13T03:21:48;8.55;;;3.10;;
11439;SDS011;5776;51.814;4.510;2023-10-13T03:24:21;6.03;;;3.00;;
11439;SDS011;5776;51.814;4.510;2023-10-13T03:26:59;6.78;;;3.22;;
11439;SDS011;5776;51.814;4.510;2023-10-13T03:29:38;3.72;;;2.45;;
11439;SDS011;5776;51.814;4.510;2023-10-13T03:32:11;4.20;;;2.58;;
11439;SDS011;5776;51.814;4.510;2023-10-13T03:34:41;8.40;;;3.28;;
11439;SDS011;5776;51.814;4.510;2023-10-13T03:37:26;4.10;;;2.53;;
11439;SDS011;5776;51.814;4.510;2023-10-13T03:40:08;8.38;;;2.92;;
11439;SDS011;5776;51.814;4.510;2023-10-13T03:42:47;7.82;;;3.58;;
11439;SDS011;5776;51.814;4.510;2023-10-13T03:45:36;5.60;;;3.17;;
11439;SDS011;5776;51.814;4.510;2023-10-13T03:48:09;6.75;;;3.90;;
11439;SDS011;5776;51.814;4.510;2023-10-13T03:50:37;8.00;;;3.70;;
11439;SDS011;5776;51.814;4.510;2023-10-13T03:53:13;8.65;;;4.03;;
11439;SDS011;5776;51.814;4.510;2023-10-13T03:55:39;7.93;;;4.03;;
11439;SDS011;5776;51.814;4.510;2023-10-13T03:58:14;8.57;;;3.80;;
11439;SDS011;5776;51.814;4.510;2023-10-13T04:00:42;5.45;;;3.50;;
11439;SDS011;5776;51.814;4.510;2023-10-13T04:03:08;6.00;;;3.95;;
11439;SDS011;5776;51.814;4.510;2023-10-13T04:05:35;7.68;;;4.20;;
11439;SDS011;5776;51.814;4.510;2023-10-13T04:08:20;8.77;;;4.40;;
11439;SDS011;5776;51.814;4.510;2023-10-13T04:10:56;6.63;;;4.07;;
11439;SDS011;5776;51.814;4.510;2023-10-13T04:13:23;6.72;;;3.38;;
11439;SDS011;5776;51.814;4.510;2023-10-13T04:16:09;5.20;;;3.90;;
11439;SDS011;5776;51.814;4.510;2023-10-13T04:18:41;6.53;;;4.20;;
11439;SDS011;5776;51.814;4.510;2023-10-13T04:21:25;6.03;;;3.33;;
11439;SDS011;5776;51.814;4.510;2023-10-13T04:24:07;6.55;;;3.42;;
11439;SDS011;5776;51.814;4.510;2023-10-13T04:26:54;7.95;;;4.40;;
11439;SDS011;5776;51.814;4.510;2023-10-13T04:29:39;5.32;;;4.07;;
11439;SDS011;5776;51.814;4.510;2023-10-13T04:32:27;9.85;;;5.03;;
11439;SDS011;5776;51.814;4.510;2023-10-13T04:34:55;8.02;;;5.10;;
11439;SDS011;5776;51.814;4.510;2023-10-13T04:37:44;8.23;;;5.80;;
11439;SDS011;5776;51.814;4.510;2023-10-13T04:40:24;7.10;;;5.28;;
11439;SDS011;5776;51.814;4.510;2023-10-13T04:42:50;8.45;;;4.35;;
11439;SDS011;5776;51.814;4.510;2023-10-13T04:45:22;5.70;;;4.40;;
11439;SDS011;5776;51.814;4.510;2023-10-13T04:47:58;6.72;;;3.80;;
11439;SDS011;5776;51.814;4.510;2023-10-13T04:50:58;6.28;;;3.70;;
11439;SDS011;5776;51.814;4.510;2023-10-13T04:53:46;9.05;;;3.80;;
11439;SDS011;5776;51.814;4.510;2023-10-13T04:56:36;7.53;;;3.17;;
11439;SDS011;5776;51.814;4.510;2023-10-13T04:59:08;9.52;;;3.47;;
11439;SDS011;5776;51.814;4.510;2023-10-13T05:01:52;9.93;;;3.58;;
11439;SDS011;5776;51.814;4.510;2023-10-13T05:04:37;6.47;;;3.38;;
11439;SDS011;5776;51.814;4.510;2023-10-13T05:07:25;9.77;;;3.05;;
11439;SDS011;5776;51.814;4.510;2023-10-13T05:10:10;6.45;;;2.95;;
11439;SDS011;5776;51.814;4.510;2023-10-13T05:12:54;12.73;;;3.15;;
11439;SDS011;5776;51.814;4.510;2023-10-13T05:15:48;8.40;;;2.78;;
11439;SDS011;5776;51.814;4.510;2023-10-13T05:18:34;6.40;;;2.65;;
11439;SDS011;5776;51.814;4.510;2023-10-13T05:21:19;8.98;;;2.53;;
11439;SDS011;5776;51.814;4.510;2023-10-13T05:24:05;4.57;;;2.33;;
11439;SDS011;5776;51.814;4.510;2023-10-13T05:26:51;6.82;;;2.38;;
11439;SDS011;5776;51.814;4.510;2023-10-13T05:29:40;7.47;;;2.17;;
11439;SDS011;5776;51.814;4.510;2023-10-13T05:32:30;6.97;;;2.47;;
11439;SDS011;5776;51.814;4.510;2023-10-13T05:35:15;7.10;;;3.22;;
11439;SDS011;5776;51.814;4.510;2023-10-13T05:38:01;9.05;;;3.65;;
11439;SDS011;5776;51.814;4.510;2023-10-13T05:40:56;6.43;;;3.08;;
11439;SDS011;5776;51.814;4.510;2023-10-13T05:43:41;9.02;;;3.55;;
11439;SDS011;5776;51.814;4.510;2023-10-13T05:46:26;6.90;;;3.60;;
11439;SDS011;5776;51.814;4.510;2023-10-13T05:48:53;5.60;;;2.90;;
11439;SDS011;5776;51.814;4.510;2023-10-13T05:51:23;10.10;;;2.58;;
11439;SDS011;5776;51.814;4.510;2023-10-13T05:54:02;4.43;;;2.72;;
11439;SDS011;5776;51.814;4.510;2023-10-13T05:56:39;13.45;;;2.88;;
11439;SDS011;5776;51.814;4.510;2023-10-13T05:59:44;6.82;;;3.03;;
11439;SDS011;5776;51.814;4.510;2023-10-13T06:02:28;5.72;;;2.90;;
11439;SDS011;5776;51.814;4.510;2023-10-13T06:05:12;6.15;;;3.10;;
11439;SDS011;5776;51.814;4.510;2023-10-13T06:07:58;8.85;;;4.10;;
11439;SDS011;5776;51.814;4.510;2023-10-13T06:10:43;8.43;;;3.90;;
11439;SDS011;5776;51.814;4.510;2023-10-13T06:13:28;7.90;;;3.58;;
11439;SDS011;5776;51.814;4.510;2023-10-13T06:16:13;9.00;;;3.97;;
11439;SDS011;5776;51.814;4.510;2023-10-13T06:18:58;5.68;;;3.92;;
11439;SDS011;5776;51.814;4.510;2023-10-13T06:21:44;6.90;;;4.13;;
11439;SDS011;5776;51.814;4.510;2023-10-13T06:24:29;6.25;;;3.53;;
11439;SDS011;5776;51.814;4.510;2023-10-13T06:27:16;8.02;;;3.88;;
11439;SDS011;5776;51.814;4.510;2023-10-13T06:30:01;8.40;;;4.18;;
11439;SDS011;5776;51.814;4.510;2023-10-13T06:32:30;7.82;;;4.03;;
11439;SDS011;5776;51.814;4.510;2023-10-13T06:34:57;5.97;;;4.13;;
11439;SDS011;5776;51.814;4.510;2023-10-13T06:37:24;7.25;;;3.83;;
11439;SDS011;5776;51.814;4.510;2023-10-13T06:39:59;11.07;;;4.15;;
11439;SDS011;5776;51.814;4.510;2023-10-13T06:42:31;10.80;;;4.85;;
11439;SDS011;5776;51.814;4.510;2023-10-13T06:45:00;7.47;;;3.72;;
11439;SDS011;5776;51.814;4.510;2023-10-13T06:47:37;10.43;;;3.58;;
11439;SDS011;5776;51.814;4.510;2023-10-13T06:50:09;10.75;;;3.40;;
11439;SDS011;5776;51.814;4.510;2023-10-13T06:52:45;8.52;;;4.30;;
11439;SDS011;5776;51.814;4.510;2023-10-13T06:55:14;4.93;;;3.13;;
11439;SDS011;5776;51.814;4.510;2023-10-13T06:57:43;12.02;;;3.63;;
11439;SDS011;5776;51.814;4.510;2023-10-13T07:00:10;5.35;;;3.42;;
11439;SDS011;5776;51.814;4.510;2023-10-13T07:02:48;11.32;;;4.22;;
11439;SDS011;5776;51.814;4.510;2023-10-13T07:05:17;10.75;;;4.00;;
11439;SDS011;5776;51.814;4.510;2023-10-13T07:07:45;13.88;;;4.15;;
11439;SDS011;5776;51.814;4.510;2023-10-13T07:10:12;7.90;;;3.85;;
11439;SDS011;5776;51.814;4.510;2023-10-13T07:12:41;11.60;;;4.45;;
11439;SDS011;5776;51.814;4.510;2023-10-13T07:15:10;11.60;;;4.70;;
11439;SDS011;5776;51.814;4.510;2023-10-13T07:17:36;12.70;;;4.03;;
11439;SDS011;5776;51.814;4.510;2023-10-13T07:20:05;8.52;;;3.55;;
11439;SDS011;5776;51.814;4.510;2023-10-13T07:22:50;7.50;;;3.63;;
11439;SDS011;5776;51.814;4.510;2023-10-13T07:25:51;7.25;;;3.88;;
11439;SDS011;5776;51.814;4.510;2023-10-13T07:28:29;11.27;;;3.95;;
11439;SDS011;5776;51.814;4.510;2023-10-13T07:31:02;8.65;;;4.18;;
11439;SDS011;5776;51.814;4.510;2023-10-13T07:33:30;12.73;;;4.03;;
11439;SDS011;5776;51.814;4.510;2023-10-13T07:36:03;8.68;;;3.60;;
11439;SDS011;5776;51.814;4.510;2023-10-13T07:38:48;10.40;;;4.07;;
11439;SDS011;5776;51.814;4.510;2023-10-13T07:41:15;8.48;;;3.90;;
11439;SDS011;5776;51.814;4.510;2023-10-13T07:43:41;18.60;;;5.45;;
11439;SDS011;5776;51.814;4.510;2023-10-13T07:46:08;8.55;;;3.83;;
11439;SDS011;5776;51.814;4.510;2023-10-13T07:48:38;14.90;;;4.32;;
11439;SDS011;5776;51.814;4.510;2023-10-13T07:51:09;9.30;;;4.15;;
11439;SDS011;5776;51.814;4.510;2023-10-13T07:53:42;9.25;;;3.95;;
11439;SDS011;5776;51.814;4.510;2023-10-13T07:56:09;8.63;;;4.30;;
11439;SDS011;5776;51.814;4.510;2023-10-13T07:58:37;8.55;;;4.00;;
11439;SDS011;5776;51.814;4.510;2023-10-13T08:01:17;12.13;;;3.97;;
11439;SDS011;5776;51.814;4.510;2023-10-13T08:03:44;6.45;;;3.47;;
11439;SDS011;5776;51.814;4.510;2023-10-13T08:06:11;14.88;;;3.78;;
11439;SDS011;5776;51.814;4.510;2023-10-13T08:08:38;10.27;;;3.65;;
11439;SDS011;5776;51.814;4.510;2023-10-13T08:11:09;12.95;;;3.60;;
11439;SDS011;5776;51.814;4.510;2023-10-13T08:13:51;8.85;;;3.45;;
11439;SDS011;5776;51.814;4.510;2023-10-13T08:16:36;11.07;;;3.83;;
11439;SDS011;5776;51.814;4.510;2023-10-13T08:19:20;7.30;;;3.30;;
11439;SDS011;5776;51.814;4.510;2023-10-13T08:21:52;12.75;;;3.78;;
11439;SDS011;5776;51.814;4.510;2023-10-13T08:24:39;10.48;;;3.95;;
11439;SDS011;5776;51.814;4.510;2023-10-13T08:27:06;8.85;;;3.78;;
11439;SDS011;5776;51.814;4.510;2023-10-13T08:29:52;12.57;;;4.25;;
11439;SDS011;5776;51.814;4.510;2023-10-13T08:32:26;14.07;;;4.13;;
11439;SDS011;5776;51.814;4.510;2023-10-13T08:34:53;11.80;;;4.55;;
11439;SDS011;5776;51.814;4.510;2023-10-13T08:37:26;13.05;;;4.13;;
11439;SDS011;5776;51.814;4.510;2023-10-13T08:39:58;10.20;;;3.45;;
11439;SDS011;5776;51.814;4.510;2023-10-13T08:45:18;8.43;;;3.58;;
11439;SDS011;5776;51.814;4.510;2023-10-13T08:53:18;12.63;;;3.90;;
11439;SDS011;5776;51.814;4.510;2023-10-13T08:55:57;14.38;;;3.67;;
11439;SDS011;5776;51.814;4.510;2023-10-13T08:58:36;10.77;;;4.53;;
11439;SDS011;5776;51.814;4.510;2023-10-13T09:01:22;11.88;;;4.18;;
11439;SDS011;5776;51.814;4.510;2023-10-13T09:07:02;11.63;;;4.10;;
11439;SDS011;5776;51.814;4.510;2023-10-13T09:09:33;12.50;;;3.88;;
11439;SDS011;5776;51.814;4.510;2023-10-13T09:12:10;14.90;;;3.95;;
11439;SDS011;5776;51.814;4.510;2023-10-13T09:14:54;11.20;;;4.18;;
11439;SDS011;5776;51.814;4.510;2023-10-13T09:17:28;12.48;;;4.10;;
11439;SDS011;5776;51.814;4.510;2023-10-13T09:20:05;7.80;;;4.15;;
11439;SDS011;5776;51.814;4.510;2023-10-13T09:23:07;12.57;;;3.72;;
11439;SDS011;5776;51.814;4.510;2023-10-13T09:25:39;9.63;;;4.10;;
11439;SDS011;5776;51.814;4.510;2023-10-13T09:28:19;18.42;;;4.28;;
11439;SDS011;5776;51.814;4.510;2023-10-13T09:30:52;11.82;;;3.95;;
11439;SDS011;5776;51.814;4.510;2023-10-13T09:33:20;16.80;;;4.65;;
11439;SDS011;5776;51.814;4.510;2023-10-13T09:35:55;8.75;;;3.80;;
11439;SDS011;5776;51.814;4.510;2023-10-13T09:38:28;10.32;;;4.10;;
11439;SDS011;5776;51.814;4.510;2023-10-13T09:40:54;12.90;;;4.57;;
11439;SDS011;5776;51.814;4.510;2023-10-13T09:43:23;9.52;;;4.35;;
11439;SDS011;5776;51.814;4.510;2023-10-13T09:45:55;10.00;;;3.95;;
11439;SDS011;5776;51.814;4.510;2023-10-13T09:48:42;12.88;;;4.65;;
11439;SDS011;5776;51.814;4.510;2023-10-13T09:51:13;8.18;;;4.25;;
11439;SDS011;5776;51.814;4.510;2023-10-13T09:53:47;10.57;;;4.20;;
11439;SDS011;5776;51.814;4.510;2023-10-13T09:56:21;15.45;;;4.55;;
11439;SDS011;5776;51.814;4.510;2023-10-13T09:58:58;11.30;;;3.88;;
11439;SDS011;5776;51.814;4.510;2023-10-13T10:01:42;7.82;;;3.65;;
11439;SDS011;5776;51.814;4.510;2023-10-13T10:04:22;17.58;;;4.78;;
11439;SDS011;5776;51.814;4.510;2023-10-13T10:06:55;16.42;;;4.22;;
11439;SDS011;5776;51.814;4.510;2023-10-13T10:09:26;15.00;;;4.50;;
11439;SDS011;5776;51.814;4.510;2023-10-13T10:12:02;10.70;;;4.40;;
11439;SDS011;5776;51.814;4.510;2023-10-13T10:17:39;16.35;;;4.80;;
11439;SDS011;5776;51.814;4.510;2023-10-13T10:20:08;11.27;;;4.35;;
11439;SDS011;5776;51.814;4.510;2023-10-13T10:22:40;14.98;;;4.10;;
11439;SDS011;5776;51.814;4.510;2023-10-13T10:25:13;9.57;;;4.47;;
11439;SDS011;5776;51.814;4.510;2023-10-13T10:27:58;12.98;;;4.30;;
11439;SDS011;5776;51.814;4.510;2023-10-13T10:30:28;10.23;;;4.68;;
11439;SDS011;5776;51.814;4.510;2023-10-13T10:32:58;13.55;;;3.88;;
11439;SDS011;5776;51.814;4.510;2023-10-13T10:36:01;12.10;;;4.50;;
11439;SDS011;5776;51.814;4.510;2023-10-13T10:38:27;14.77;;;4.82;;
11439;SDS011;5776;51.814;4.510;2023-10-13T10:40:55;10.48;;;4.82;;
11439;SDS011;5776;51.814;4.510;2023-10-13T10:46:17;15.00;;;4.13;;
11439;SDS011;5776;51.814;4.510;2023-10-13T10:48:50;12.98;;;4.40;;
11439;SDS011;5776;51.814;4.510;2023-10-13T10:51:22;13.35;;;4.78;;
11439;SDS011;5776;51.814;4.510;2023-10-13T10:53:48;16.33;;;5.00;;
11439;SDS011;5776;51.814;4.510;2023-10-13T10:56:23;12.18;;;4.88;;
11439;SDS011;5776;51.814;4.510;2023-10-13T10:58:54;15.32;;;5.05;;
11439;SDS011;5776;51.814;4.510;2023-10-13T11:01:28;15.82;;;4.70;;
11439;SDS011;5776;51.814;4.510;2023-10-13T11:04:07;8.23;;;4.00;;
11439;SDS011;5776;51.814;4.510;2023-10-13T11:06:34;11.98;;;4.70;;
11439;SDS011;5776;51.814;4.510;2023-10-13T11:09:08;13.30;;;4.30;;
11439;SDS011;5776;51.814;4.510;2023-10-13T11:11:44;13.43;;;4.65;;
11439;SDS011;5776;51.814;4.510;2023-10-13T11:17:22;11.18;;;4.25;;
11439;SDS011;5776;51.814;4.510;2023-10-13T11:20:12;22.83;;;5.40;;
11439;SDS011;5776;51.814;4.510;2023-10-13T11:22:49;15.85;;;5.30;;
11439;SDS011;5776;51.814;4.510;2023-10-13T11:25:25;14.13;;;5.00;;
11439;SDS011;5776;51.814;4.510;2023-10-13T11:27:56;12.13;;;5.13;;
11439;SDS011;5776;51.814;4.510;2023-10-13T11:30:32;18.67;;;5.35;;
11439;SDS011;5776;51.814;4.510;2023-10-13T11:33:02;15.77;;;4.78;;
11439;SDS011;5776;51.814;4.510;2023-10-13T11:35:33;16.67;;;4.57;;
11439;SDS011;5776;51.814;4.510;2023-10-13T11:38:29;11.45;;;4.68;;
11439;SDS011;5776;51.814;4.510;2023-10-13T11:41:13;13.60;;;5.47;;
11439;SDS011;5776;51.814;4.510;2023-10-13T11:43:48;14.10;;;4.72;;
11439;SDS011;5776;51.814;4.510;2023-10-13T11:46:19;12.95;;;4.63;;
11439;SDS011;5776;51.814;4.510;2023-10-13T11:51:41;14.65;;;5.38;;
11439;SDS011;5776;51.814;4.510;2023-10-13T11:54:12;11.20;;;5.10;;
11439;SDS011;5776;51.814;4.510;2023-10-13T11:56:45;13.73;;;5.28;;
11439;SDS011;5776;51.814;4.510;2023-10-13T11:59:11;12.90;;;5.18;;
11439;SDS011;5776;51.814;4.510;2023-10-13T12:01:44;15.52;;;5.03;;
11439;SDS011;5776;51.814;4.510;2023-10-13T12:04:28;14.23;;;5.10;;
11439;SDS011;5776;51.814;4.510;2023-10-13T12:07:00;15.68;;;5.15;;
11439;SDS011;5776;51.814;4.510;2023-10-13T12:09:56;14.38;;;4.68;;
11439;SDS011;5776;51.814;4.510;2023-10-13T12:14:51;13.25;;;5.15;;
11439;SDS011;5776;51.814;4.510;2023-10-13T12:17:24;14.63;;;5.05;;
11439;SDS011;5776;51.814;4.510;2023-10-13T12:19:57;10.57;;;5.25;;
11439;SDS011;5776;51.814;4.510;2023-10-13T12:22:24;11.27;;;4.88;;
11439;SDS011;5776;51.814;4.510;2023-10-13T12:24:54;14.52;;;5.07;;
11439;SDS011;5776;51.814;4.510;2023-10-13T12:27:21;11.82;;;5.38;;
11439;SDS011;5776;51.814;4.510;2023-10-13T12:29:52;17.42;;;5.25;;
11439;SDS011;5776;51.814;4.510;2023-10-13T12:32:19;10.43;;;4.38;;
11439;SDS011;5776;51.814;4.510;2023-10-13T12:34:50;15.98;;;5.35;;
11439;SDS011;5776;51.814;4.510;2023-10-13T12:37:32;10.65;;;4.93;;
11439;SDS011;5776;51.814;4.510;2023-10-13T12:40:02;16.88;;;4.90;;
11439;SDS011;5776;51.814;4.510;2023-10-13T12:42:49;21.77;;;5.85;;
11439;SDS011;5776;51.814;4.510;2023-10-13T12:45:37;16.83;;;6.13;;
11439;SDS011;5776;51.814;4.510;2023-10-13T12:48:24;12.90;;;4.88;;
11439;SDS011;5776;51.814;4.510;2023-10-13T12:51:08;15.05;;;5.78;;
11439;SDS011;5776;51.814;4.510;2023-10-13T12:53:48;18.75;;;5.78;;
11439;SDS011;5776;51.814;4.510;2023-10-13T12:56:15;11.63;;;5.45;;
11439;SDS011;5776;51.814;4.510;2023-10-13T12:58:42;15.57;;;5.47;;
11439;SDS011;5776;51.814;4.510;2023-10-13T13:01:16;16.52;;;5.78;;
11439;SDS011;5776;51.814;4.510;2023-10-13T13:03:49;18.50;;;5.22;;
11439;SDS011;5776;51.814;4.510;2023-10-13T13:06:21;13.63;;;4.80;;
11439;SDS011;5776;51.814;4.510;2023-10-13T13:08:52;13.60;;;5.60;;
11439;SDS011;5776;51.814;4.510;2023-10-13T13:11:25;13.07;;;4.80;;
11439;SDS011;5776;51.814;4.510;2023-10-13T13:13:54;12.93;;;5.35;;
11439;SDS011;5776;51.814;4.510;2023-10-13T13:16:20;11.82;;;4.93;;
11439;SDS011;5776;51.814;4.510;2023-10-13T13:18:55;14.23;;;5.28;;
11439;SDS011;5776;51.814;4.510;2023-10-13T13:21:22;14.95;;;5.03;;
11439;SDS011;5776;51.814;4.510;2023-10-13T13:23:49;12.98;;;5.60;;
11439;SDS011;5776;51.814;4.510;2023-10-13T13:26:16;20.48;;;6.15;;
11439;SDS011;5776;51.814;4.510;2023-10-13T13:28:46;15.63;;;5.13;;
11439;SDS011;5776;51.814;4.510;2023-10-13T13:31:16;17.25;;;5.78;;
11439;SDS011;5776;51.814;4.510;2023-10-13T13:33:42;15.02;;;4.85;;
11439;SDS011;5776;51.814;4.510;2023-10-13T13:36:09;23.02;;;6.25;;
11439;SDS011;5776;51.814;4.510;2023-10-13T13:38:42;12.85;;;5.35;;
11439;SDS011;5776;51.814;4.510;2023-10-13T13:41:14;12.48;;;4.45;;
11439;SDS011;5776;51.814;4.510;2023-10-13T13:43:42;13.35;;;4.88;;
11439;SDS011;5776;51.814;4.510;2023-10-13T13:46:21;12.07;;;4.85;;
11439;SDS011;5776;51.814;4.510;2023-10-13T13:49:09;9.20;;;4.88;;
11439;SDS011;5776;51.814;4.510;2023-10-13T13:51:45;10.00;;;4.53;;
11439;SDS011;5776;51.814;4.510;2023-10-13T13:54:18;12.98;;;4.35;;
11439;SDS011;5776;51.814;4.510;2023-10-13T13:56:45;12.30;;;4.32;;
11439;SDS011;5776;51.814;4.510;2023-10-13T13:59:11;12.55;;;4.82;;
11439;SDS011;5776;51.814;4.510;2023-10-13T14:01:40;14.60;;;4.68;;
11439;SDS011;5776;51.814;4.510;2023-10-13T14:04:10;14.35;;;4.00;;
11439;SDS011;5776;51.814;4.510;2023-10-13T14:06:37;12.13;;;4.43;;
11439;SDS011;5776;51.814;4.510;2023-10-13T14:09:05;12.75;;;4.10;;
11439;SDS011;5776;51.814;4.510;2023-10-13T14:11:49;11.43;;;3.60;;
11439;SDS011;5776;51.814;4.510;2023-10-13T14:14:33;10.88;;;4.15;;
11439;SDS011;5776;51.814;4.510;2023-10-13T14:17:00;9.00;;;4.20;;
11439;SDS011;5776;51.814;4.510;2023-10-13T14:19:32;16.27;;;5.28;;
11439;SDS011;5776;51.814;4.510;2023-10-13T14:21:59;13.98;;;4.75;;
11439;SDS011;5776;51.814;4.510;2023-10-13T14:24:31;9.82;;;3.80;;
11439;SDS011;5776;51.814;4.510;2023-10-13T14:26:59;11.45;;;4.53;;
11439;SDS011;5776;51.814;4.510;2023-10-13T14:29:43;10.57;;;4.43;;
11439;SDS011;5776;51.814;4.510;2023-10-13T14:32:09;13.05;;;4.25;;
11439;SDS011;5776;51.814;4.510;2023-10-13T14:34:40;9.90;;;4.03;;
11439;SDS011;5776;51.814;4.510;2023-10-13T14:37:11;14.23;;;4.18;;
11439;SDS011;5776;51.814;4.510;2023-10-13T14:39:38;15.55;;;4.45;;
11439;SDS011;5776;51.814;4.510;2023-10-13T14:42:04;18.13;;;5.43;;
11439;SDS011;5776;51.814;4.510;2023-10-13T14:44:33;10.90;;;4.05;;
11439;SDS011;5776;51.814;4.510;2023-10-13T14:47:02;11.65;;;4.32;;
11439;SDS011;5776;51.814;4.510;2023-10-13T14:49:30;10.80;;;3.50;;
11439;SDS011;5776;51.814;4.510;2023-10-13T14:51:57;9.50;;;4.00;;
11439;SDS011;5776;51.814;4.510;2023-10-13T14:54:25;10.45;;;4.18;;
11439;SDS011;5776;51.814;4.510;2023-10-13T14:57:00;15.00;;;3.65;;
11439;SDS011;5776;51.814;4.510;2023-10-13T14:59:27;18.77;;;4.30;;
11439;SDS011;5776;51.814;4.510;2023-10-13T15:01:58;12.32;;;4.20;;
11439;SDS011;5776;51.814;4.510;2023-10-13T15:04:26;16.02;;;4.40;;
11439;SDS011;5776;51.814;4.510;2023-10-13T15:06:56;13.40;;;4.05;;
11439;SDS011;5776;51.814;4.510;2023-10-13T15:09:22;12.52;;;3.65;;
11439;SDS011;5776;51.814;4.510;2023-10-13T15:11:50;7.88;;;3.88;;
11439;SDS011;5776;51.814;4.510;2023-10-13T15:14:20;13.35;;;3.80;;
11439;SDS011;5776;51.814;4.510;2023-10-13T15:16:47;13.70;;;4.20;;
11439;SDS011;5776;51.814;4.510;2023-10-13T15:19:13;10.48;;;3.83;;
11439;SDS011;5776;51.814;4.510;2023-10-13T15:21:38;17.85;;;4.18;;
11439;SDS011;5776;51.814;4.510;2023-10-13T15:24:06;17.65;;;3.75;;
11439;SDS011;5776;51.814;4.510;2023-10-13T15:26:45;13.40;;;4.43;;
11439;SDS011;5776;51.814;4.510;2023-10-13T15:29:14;9.85;;;3.53;;
11439;SDS011;5776;51.814;4.510;2023-10-13T15:31:43;12.77;;;3.90;;
11439;SDS011;5776;51.814;4.510;2023-10-13T15:34:30;13.13;;;3.60;;
11439;SDS011;5776;51.814;4.510;2023-10-13T15:36:57;11.20;;;3.42;;
11439;SDS011;5776;51.814;4.510;2023-10-13T15:39:24;8.82;;;3.22;;
11439;SDS011;5776;51.814;4.510;2023-10-13T15:41:53;17.05;;;4.30;;
11439;SDS011;5776;51.814;4.510;2023-10-13T15:44:24;11.10;;;3.78;;
11439;SDS011;5776;51.814;4.510;2023-10-13T15:46:56;11.98;;;3.55;;
11439;SDS011;5776;51.814;4.510;2023-10-13T15:49:22;9.23;;;3.85;;
11439;SDS011;5776;51.814;4.510;2023-10-13T15:51:48;12.77;;;3.97;;
11439;SDS011;5776;51.814;4.510;2023-10-13T15:54:14;11.15;;;3.50;;
11439;SDS011;5776;51.814;4.510;2023-10-13T15:56:44;9.98;;;3.67;;
11439;SDS011;5776;51.814;4.510;2023-10-13T15:59:11;9.10;;;3.50;;
11439;SDS011;5776;51.814;4.510;2023-10-13T16:01:36;13.18;;;3.88;;
11439;SDS011;5776;51.814;4.510;2023-10-13T16:04:04;11.02;;;3.50;;
11439;SDS011;5776;51.814;4.510;2023-10-13T16:09:06;9.25;;;3.38;;